Time;durP1;ratioP1;P1;durP2;ratioP2;P2;SDS_P1;SDS_P2;PMS_P1;PMS_P2;Temp;Humidity;BMP_temperature;BMP_pressure;BME280_temperature;BME280_humidity;BME280_pressure;Samples;Min_cycle;Max_cycle;Signal;HPM_P1;HPM_P2
2021/05/22 16:40:00;;;;;;;11.32;3.60;;;614.90;1100.80;;;;;;5035834;27;20872;-75
2021/05/22 16:42:26;;;;;;;6.70;2.90;;;614.90;1100.80;;;;;;5043776;28;20508;-76
2021/05/22 16:44:53;;;;;;;9.68;2.40;;;614.80;1100.80;;;;;;4980666;28;20068;-76
2021/05/22 16:47:18;;;;;;;4.35;2.72;;;614.80;1126.40;;;;;;4985309;28;20046;-75
2021/05/22 16:49:45;;;;;;;12.55;3.90;;;614.90;1126.40;;;;;;4989894;28;20235;-76
2021/05/22 16:52:11;;;;;;;195.43;49.38;;;615.00;1126.40;;;;;;5037232;28;20036;-77
2021/05/22 16:54:37;;;;;;;359.10;101.25;;;615.00;1126.40;;;;;;5055734;28;20029;-75
2021/05/22 16:57:03;;;;;;;22.55;6.60;;;615.10;1177.60;;;;;;5067733;28;20044;-76
2021/05/22 16:59:29;;;;;;;138.07;38.45;;;615.00;1126.40;;;;;;5054362;28;20022;-76
2021/05/22 17:01:55;;;;;;;59.60;14.90;;;615.00;1126.40;;;;;;5050700;28;20072;-75
2021/05/22 17:04:21;;;;;;;18.63;5.47;;;614.90;1177.60;;;;;;5050257;28;20074;-77
2021/05/22 17:06:47;;;;;;;15.52;4.40;;;614.90;1126.40;;;;;;5085844;28;20016;-75
2021/05/22 17:09:13;;;;;;;7.95;2.47;;;614.90;1177.60;;;;;;5069978;28;20021;-75
2021/05/22 17:11:42;;;;;;;8.73;2.65;;;614.90;1100.80;;;;;;5065541;28;20485;-77
2021/05/22 17:14:08;;;;;;;5.32;2.30;;;614.70;1126.40;;;;;;5068264;28;20024;-75
2021/05/22 17:16:34;;;;;;;9.73;2.85;;;614.60;1126.40;;;;;;5085915;28;20017;-76
2021/05/22 17:19:00;;;;;;;7.30;1.98;;;614.60;1126.40;;;;;;5085764;28;20346;-76
2021/05/22 17:21:26;;;;;;;6.78;2.22;;;614.50;1126.40;;;;;;5085738;28;20036;-75
2021/05/22 17:23:52;;;;;;;8.27;2.42;;;614.40;1126.40;;;;;;5085665;28;20027;-75
2021/05/22 17:26:18;;;;;;;5.68;2.15;;;614.40;1152.00;;;;;;5069941;28;20453;-76
2021/05/22 17:28:44;;;;;;;4.68;2.03;;;589.70;1126.40;;;;;;5070294;28;20476;-77
2021/05/22 17:31:11;;;;;;;5.55;2.42;;;589.70;1126.40;;;;;;5069387;28;20020;-77
2021/05/22 17:33:37;;;;;;;4.65;1.83;;;589.60;1126.40;;;;;;5085423;28;20594;-80
2021/05/22 17:36:04;;;;;;;7.88;2.80;;;589.60;1126.40;;;;;;5068173;28;20021;-80
2021/05/22 17:38:30;;;;;;;3.20;1.30;;;589.50;1126.40;;;;;;5084741;28;20053;-80
2021/05/22 17:40:56;;;;;;;7.05;1.90;;;589.60;1126.40;;;;;;5069613;28;20109;-79
2021/05/22 17:43:22;;;;;;;6.07;3.08;;;589.50;1126.40;;;;;;5081760;28;20419;-78
2021/05/22 17:45:49;;;;;;;3.53;1.50;;;589.50;1126.40;;;;;;5084175;28;20145;-78
2021/05/22 17:48:18;;;;;;;6.30;1.80;;;589.40;1100.80;;;;;;5083672;28;20055;-75
2021/05/22 17:50:45;;;;;;;6.13;1.42;;;589.30;1100.80;;;;;;5074683;28;20017;-74
2021/05/22 17:53:11;;;;;;;6.82;2.15;;;589.30;1100.80;;;;;;5071385;28;20466;-76
2021/05/22 17:55:37;;;;;;;8.63;2.25;;;589.30;1126.40;;;;;;5054563;28;20109;-75
2021/05/22 17:58:03;;;;;;;5.75;2.08;;;589.10;1126.40;;;;;;5071366;28;20115;-75
2021/05/22 18:00:31;;;;;;;7.18;3.53;;;589.00;1100.80;;;;;;5071433;28;20032;-76
2021/05/22 18:02:58;;;;;;;3.67;2.00;;;589.00;1126.40;;;;;;5056474;28;20025;-76
2021/05/22 18:05:28;;;;;;;4.60;1.77;;;589.00;1100.80;;;;;;5071344;28;20021;-76
2021/05/22 18:07:54;;;;;;;5.65;2.33;;;588.80;1100.80;;;;;;5071077;28;20021;-75
2021/05/22 18:10:23;;;;;;;4.55;2.42;;;588.80;1126.40;;;;;;5055442;28;20112;-76
2021/05/22 18:12:50;;;;;;;3.35;1.55;;;564.10;1100.80;;;;;;5055400;28;20457;-76
2021/05/22 18:15:17;;;;;;;17.05;12.50;;;588.80;1100.80;;;;;;5059220;28;20029;-75
2021/05/22 18:17:43;;;;;;;6.45;3.67;;;588.80;1152.00;;;;;;5052902;28;20013;-76
2021/05/22 18:20:11;;;;;;;4.75;2.80;;;564.10;1177.60;;;;;;5051564;28;20040;-77
2021/05/22 18:22:40;;;;;;;14.88;5.55;;;564.10;1152.00;;;;;;5067671;28;20025;-77
2021/05/22 18:25:06;;;;;;;10.88;7.93;;;564.10;1203.20;;;;;;5051495;28;20032;-76
2021/05/22 18:27:32;;;;;;;11.18;8.73;;;564.00;1254.40;;;;;;5054035;28;20025;-76
2021/05/22 18:29:58;;;;;;;13.60;9.20;;;564.00;1254.40;;;;;;5054254;28;20087;-76
2021/05/22 18:32:25;;;;;;;8.40;6.40;;;563.90;1254.40;;;;;;5054347;28;20025;-76
2021/05/22 18:34:51;;;;;;;6.43;4.03;;;563.90;1228.80;;;;;;5055828;28;20456;-75
2021/05/22 18:37:18;;;;;;;8.13;3.33;;;563.80;1228.80;;;;;;5055194;28;20027;-76
2021/05/22 18:39:44;;;;;;;6.70;4.53;;;563.90;1203.20;;;;;;5053638;28;20045;-75
2021/05/22 18:42:14;;;;;;;8.82;4.75;;;563.80;1228.80;;;;;;5054735;28;20529;-75
2021/05/22 18:44:42;;;;;;;6.68;3.67;;;563.80;1203.20;;;;;;5070573;28;20047;-76
2021/05/22 18:47:10;;;;;;;10.20;3.28;;;563.80;1203.20;;;;;;5054183;28;20043;-76
2021/05/22 18:49:36;;;;;;;8.40;4.97;;;563.90;1177.60;;;;;;5054897;28;20029;-77
2021/05/22 18:52:07;;;;;;;7.47;4.15;;;563.90;1152.00;;;;;;5054889;28;20032;-75
2021/05/22 18:54:33;;;;;;;9.02;3.90;;;563.90;1228.80;;;;;;5054775;28;20017;-75
2021/05/22 18:56:59;;;;;;;8.68;3.58;;;563.90;1228.80;;;;;;5054827;28;20032;-74
2021/05/22 18:59:25;;;;;;;6.78;2.60;;;563.80;1203.20;;;;;;5053946;28;20029;-77
2021/05/22 19:01:51;;;;;;;6.88;2.63;;;563.70;1152.00;;;;;;5052440;28;20021;-79
2021/05/22 19:04:18;;;;;;;5.53;2.40;;;563.70;1152.00;;;;;;5053140;28;20021;-77
2021/05/22 19:06:44;;;;;;;6.78;3.05;;;563.70;1177.60;;;;;;5070264;28;20479;-77
2021/05/22 19:09:09;;;;;;;7.22;4.25;;;563.70;1152.00;;;;;;5069854;28;20040;-76
2021/05/22 19:11:35;;;;;;;9.07;2.97;;;563.70;1152.00;;;;;;5053410;28;20059;-76
2021/05/22 19:14:01;;;;;;;8.75;2.85;;;563.70;1126.40;;;;;;5053279;28;20444;-78
2021/05/22 19:16:27;;;;;;;5.18;1.58;;;563.70;1152.00;;;;;;5054174;28;20096;-78
2021/05/22 19:18:53;;;;;;;4.55;1.55;;;563.60;1100.80;;;;;;5069640;28;20033;-78
2021/05/22 19:21:19;;;;;;;3.33;1.30;;;563.60;1075.20;;;;;;5070077;28;20025;-75
2021/05/22 19:23:46;;;;;;;3.65;1.83;;;563.60;1049.60;;;;;;5054395;28;20082;-78
2021/05/22 19:26:12;;;;;;;3.53;1.60;;;563.60;1075.20;;;;;;5069847;28;20021;-77
2021/05/22 19:28:38;;;;;;;2.80;1.30;;;563.60;1049.60;;;;;;5054593;28;20083;-76
2021/05/22 19:31:05;;;;;;;3.85;1.52;;;563.60;1075.20;;;;;;5049533;28;20025;-75
2021/05/22 19:33:31;;;;;;;5.85;2.15;;;563.60;1049.60;;;;;;5037480;28;20103;-74
2021/05/22 19:35:59;;;;;;;6.53;4.65;;;563.60;1100.80;;;;;;5054033;28;20047;-75
2021/05/22 19:38:25;;;;;;;8.75;2.90;;;563.40;1177.60;;;;;;5053747;28;20044;-74
2021/05/22 19:40:51;;;;;;;5.70;2.47;;;563.20;1177.60;;;;;;5054609;28;20032;-74
2021/05/22 19:43:17;;;;;;;3.88;2.00;;;538.50;1177.60;;;;;;5054279;28;20056;-74
2021/05/22 19:45:43;;;;;;;4.90;2.33;;;538.30;1203.20;;;;;;5052657;28;20021;-74
2021/05/22 19:48:08;;;;;;;9.30;2.85;;;538.30;1203.20;;;;;;5069182;28;20032;-75
2021/05/22 19:50:34;;;;;;;7.13;2.10;;;538.30;1228.80;;;;;;5053667;28;20021;-75
2021/05/22 19:53:00;;;;;;;5.90;2.20;;;538.10;1228.80;;;;;;5052877;28;20029;-75
2021/05/22 19:55:26;;;;;;;5.72;1.95;;;538.00;1203.20;;;;;;5052676;28;20346;-75
2021/05/22 19:57:53;;;;;;;3.90;2.08;;;538.00;1203.20;;;;;;5053777;28;20028;-76
2021/05/22 20:00:23;;;;;;;5.38;1.80;;;537.90;1228.80;;;;;;5052939;28;20173;-76
2021/05/22 20:02:51;;;;;;;4.32;2.10;;;537.90;1203.20;;;;;;5069270;28;20404;-75
2021/05/22 20:05:18;;;;;;;6.82;1.73;;;537.80;1203.20;;;;;;5052251;28;20053;-75
2021/05/22 20:07:45;;;;;;;7.22;1.80;;;537.80;1203.20;;;;;;5053445;28;20035;-75
2021/05/22 20:10:11;;;;;;;6.85;1.77;;;537.70;1254.40;;;;;;5053749;28;20365;-76
2021/05/22 20:12:37;;;;;;;4.55;1.58;;;537.60;1177.60;;;;;;5052125;28;20055;-76
2021/05/22 20:15:05;;;;;;;6.18;1.67;;;537.60;1152.00;;;;;;5053720;28;20028;-75
2021/05/22 20:17:31;;;;;;;4.22;1.90;;;537.60;1152.00;;;;;;5069076;28;20017;-74
2021/05/22 20:19:57;;;;;;;5.03;2.40;;;537.60;1126.40;;;;;;5051836;28;20032;-78
2021/05/22 20:22:23;;;;;;;6.47;2.60;;;537.60;1177.60;;;;;;5052292;28;20029;-76
2021/05/22 20:24:48;;;;;;;9.13;3.30;;;512.90;1203.20;;;;;;5052586;28;20365;-81
2021/05/22 20:27:15;;;;;;;6.75;3.00;;;512.90;1254.40;;;;;;5052363;28;20024;-80
2021/05/22 20:29:41;;;;;;;14.07;5.40;;;512.70;1280.00;;;;;;5052664;28;20431;-78
2021/05/22 20:32:07;;;;;;;12.18;5.55;;;512.70;1305.60;;;;;;5052448;28;20115;-76
2021/05/22 20:34:33;;;;;;;14.73;4.63;;;512.60;1331.20;;;;;;5052125;28;20032;-76
2021/05/22 20:36:59;;;;;;;9.95;3.08;;;512.50;1356.80;;;;;;5053672;28;20025;-80
2021/05/22 20:39:24;;;;;;;15.10;3.80;;;512.20;1356.80;;;;;;5051937;28;20056;-79
2021/05/22 20:41:50;;;;;;;11.20;3.15;;;512.00;1356.80;;;;;;5052282;28;20036;-78
2021/05/22 20:44:17;;;;;;;6.25;2.95;;;487.20;1382.40;;;;;;5053742;28;20025;-80
2021/05/22 20:46:43;;;;;;;4.90;2.80;;;487.00;1356.80;;;;;;5053651;28;20020;-80
2021/05/22 20:49:09;;;;;;;5.45;2.08;;;487.10;1382.40;;;;;;5052938;28;20031;-79
2021/05/22 20:51:35;;;;;;;6.18;2.63;;;487.10;1356.80;;;;;;5068984;28;20021;-77
2021/05/22 20:54:01;;;;;;;10.50;2.53;;;486.90;1382.40;;;;;;5051837;28;20387;-76
2021/05/22 20:56:27;;;;;;;4.78;2.60;;;486.90;1382.40;;;;;;5053328;28;20449;-76
2021/05/22 20:58:53;;;;;;;5.68;2.00;;;486.90;1382.40;;;;;;5068573;28;20039;-76
2021/05/22 21:01:19;;;;;;;4.22;2.42;;;486.80;1382.40;;;;;;5051769;28;20071;-76
2021/05/22 21:03:45;;;;;;;10.23;3.13;;;486.80;1408.00;;;;;;5068597;28;20468;-77
2021/05/22 21:06:12;;;;;;;10.32;3.60;;;486.70;1408.00;;;;;;5051676;28;20024;-75
2021/05/22 21:08:39;;;;;;;6.72;3.35;;;486.70;1408.00;;;;;;5051750;28;20021;-76
2021/05/22 21:11:08;;;;;;;10.57;4.05;;;486.70;1382.40;;;;;;5051816;28;20463;-75
2021/05/22 21:13:34;;;;;;;15.65;4.47;;;486.70;1382.40;;;;;;5053263;28;20453;-76
2021/05/22 21:16:01;;;;;;;13.95;5.30;;;486.70;1356.80;;;;;;5051648;28;20116;-74
2021/05/22 21:18:27;;;;;;;11.75;4.90;;;486.60;1331.20;;;;;;5051726;28;20060;-77
2021/05/22 21:20:53;;;;;;;12.73;4.68;;;486.80;1331.20;;;;;;5051760;28;20027;-76
2021/05/22 21:23:19;;;;;;;14.65;7.22;;;486.80;1382.40;;;;;;5052659;28;20096;-74
2021/05/22 21:25:45;;;;;;;11.77;5.60;;;486.70;1382.40;;;;;;5070481;28;20020;-79
2021/05/22 21:28:11;;;;;;;14.38;6.15;;;486.70;1408.00;;;;;;5055662;28;20075;-75
2021/05/22 21:30:37;;;;;;;12.50;4.80;;;486.60;1459.20;;;;;;5053611;28;20461;-74
2021/05/22 21:33:04;;;;;;;13.05;4.97;;;461.10;1382.40;;;;;;5068815;28;20025;-74
2021/05/22 21:35:31;;;;;;;14.90;6.97;;;486.60;1408.00;;;;;;5068648;28;20546;-75
2021/05/22 21:37:57;;;;;;;14.45;6.25;;;486.60;1408.00;;;;;;5053443;28;20052;-74
2021/05/22 21:40:25;;;;;;;12.50;4.97;;;486.60;1433.60;;;;;;5054501;28;20025;-74
2021/05/22 21:42:51;;;;;;;11.07;3.50;;;486.60;1331.20;;;;;;5054980;28;20025;-75
2021/05/22 21:45:18;;;;;;;5.18;2.55;;;487.10;1228.80;;;;;;5055293;28;20025;-75
2021/05/22 21:47:45;;;;;;;6.40;2.92;;;486.90;1203.20;;;;;;5071505;28;20028;-76
2021/05/22 21:50:22;;;;;;;6.55;3.15;;;486.80;1228.80;;;;;;5054998;28;20125;-75
2021/05/22 21:52:48;;;;;;;6.90;2.88;;;486.80;1254.40;;;;;;5056319;28;20017;-74
2021/05/22 21:55:17;;;;;;;7.45;3.03;;;486.80;1280.00;;;;;;5056570;28;20044;-74
2021/05/22 21:57:46;;;;;;;5.93;2.35;;;486.70;1280.00;;;;;;5054746;28;20017;-74
2021/05/22 22:00:21;;;;;;;4.10;2.10;;;486.80;1280.00;;;;;;5056475;28;20361;-74
2021/05/22 22:02:49;;;;;;;4.63;2.05;;;486.80;1305.60;;;;;;5054882;28;20036;-74
2021/05/22 22:05:15;;;;;;;4.40;1.70;;;486.80;1254.40;;;;;;5055986;28;20030;-74
2021/05/22 22:07:41;;;;;;;4.63;2.47;;;486.80;1177.60;;;;;;5054773;28;20021;-74
2021/05/22 22:10:07;;;;;;;3.13;1.75;;;486.90;1203.20;;;;;;5056173;28;20096;-74
2021/05/22 22:12:33;;;;;;;7.55;3.33;;;486.90;1203.20;;;;;;5055379;28;20100;-74
2021/05/22 22:14:59;;;;;;;7.10;3.90;;;486.80;1254.40;;;;;;5071353;28;20048;-76
2021/05/22 22:17:25;;;;;;;7.68;3.08;;;486.80;1305.60;;;;;;5055730;28;20385;-74
2021/05/22 22:19:51;;;;;;;8.60;3.15;;;486.70;1305.60;;;;;;5054639;28;20029;-73
2021/05/22 22:22:17;;;;;;;6.28;3.20;;;486.70;1331.20;;;;;;5055721;28;20045;-74
2021/05/22 22:24:43;;;;;;;5.28;2.60;;;486.40;1356.80;;;;;;5054302;28;20025;-75
2021/05/22 22:27:09;;;;;;;9.63;3.50;;;461.70;1356.80;;;;;;5054532;28;20021;-74
2021/05/22 22:29:35;;;;;;;3.78;2.00;;;461.70;1331.20;;;;;;5054241;28;20032;-75
2021/05/22 22:32:00;;;;;;;3.70;1.90;;;461.70;1254.40;;;;;;5054322;28;20521;-77
2021/05/22 22:34:26;;;;;;;5.05;1.95;;;486.40;1280.00;;;;;;5054325;28;20357;-79
2021/05/22 22:36:52;;;;;;;7.35;2.45;;;461.70;1305.60;;;;;;5054030;28;20021;-79
2021/05/22 22:39:18;;;;;;;7.05;2.80;;;461.70;1382.40;;;;;;5053809;28;20041;-77
2021/05/22 22:41:44;;;;;;;8.32;2.78;;;461.50;1433.60;;;;;;5054096;28;20066;-78
2021/05/22 22:44:10;;;;;;;5.10;2.47;;;461.40;1433.60;;;;;;5054123;28;20458;-79
2021/05/22 22:46:35;;;;;;;7.60;3.13;;;461.20;1433.60;;;;;;5055154;28;20025;-78
2021/05/22 22:49:01;;;;;;;8.50;3.90;;;461.20;1459.20;;;;;;5053705;28;20021;-78
2021/05/22 22:51:27;;;;;;;7.57;3.03;;;461.20;1459.20;;;;;;5054047;28;20017;-78
2021/05/22 22:53:53;;;;;;;5.03;2.22;;;461.00;1484.80;;;;;;5053675;28;20475;-79
2021/05/22 22:56:22;;;;;;;6.18;3.15;;;460.90;1484.80;;;;;;5053901;28;20028;-77
2021/05/22 22:58:48;;;;;;;5.68;3.03;;;461.00;1510.40;;;;;;5055103;28;20111;-77
2021/05/22 23:01:15;;;;;;;7.65;2.83;;;460.80;1510.40;;;;;;5053614;28;20116;-78
2021/05/22 23:03:42;;;;;;;7.18;2.53;;;460.80;1510.40;;;;;;5053788;28;20377;-78
2021/05/22 23:06:09;;;;;;;4.88;2.65;;;436.10;1510.40;;;;;;5053894;28;20017;-77
2021/05/22 23:08:36;;;;;;;9.55;3.67;;;435.90;1484.80;;;;;;5053425;28;20078;-77
2021/05/22 23:11:03;;;;;;;8.95;3.38;;;436.00;1536.00;;;;;;5054883;28;20021;-78
2021/05/22 23:13:29;;;;;;;16.05;4.03;;;436.00;1536.00;;;;;;5053700;28;20028;-78
2021/05/22 23:15:56;;;;;;;7.63;3.38;;;435.70;1536.00;;;;;;5053510;28;20024;-79
2021/05/22 23:18:22;;;;;;;9.30;3.08;;;435.70;1536.00;;;;;;5053403;28;20411;-78
2021/05/22 23:20:49;;;;;;;9.50;2.80;;;435.60;1561.60;;;;;;5053434;28;20104;-77
2021/05/22 23:23:15;;;;;;;5.43;2.67;;;435.70;1536.00;;;;;;5053350;28;20021;-78
2021/05/22 23:25:42;;;;;;;5.68;2.97;;;435.60;1587.20;;;;;;5053297;28;20025;-77
2021/05/22 23:28:08;;;;;;;6.70;3.38;;;435.60;1612.80;;;;;;5053392;28;20029;-79
2021/05/22 23:30:35;;;;;;;7.82;3.40;;;435.30;1587.20;;;;;;5053123;28;20024;-78
2021/05/22 23:33:02;;;;;;;17.23;4.88;;;435.80;1612.80;;;;;;5048454;28;20021;-80
2021/05/22 23:35:29;;;;;;;13.57;6.90;;;435.30;1638.40;;;;;;5049844;28;20445;-81
2021/05/22 23:37:56;;;;;;;10.98;6.47;;;435.60;1638.40;;;;;;5034449;28;20045;-80
2021/05/22 23:40:25;;;;;;;12.20;4.90;;;435.30;1638.40;;;;;;5050123;28;20028;-77
2021/05/22 23:42:52;;;;;;;9.05;4.68;;;435.30;1664.00;;;;;;5034089;28;20103;-79
2021/05/22 23:45:18;;;;;;;7.63;3.50;;;435.20;1664.00;;;;;;5049612;28;20026;-77
2021/05/22 23:47:45;;;;;;;9.07;3.53;;;410.50;1664.00;;;;;;5049244;28;20072;-78
2021/05/22 23:50:14;;;;;;;8.82;3.33;;;410.40;1689.60;;;;;;5049538;28;20024;-76
2021/05/22 23:52:40;;;;;;;7.55;3.63;;;410.20;1689.60;;;;;;5049536;28;20049;-80
2021/05/22 23:55:09;;;;;;;7.07;3.22;;;410.30;1740.80;;;;;;5049636;28;20068;-77
2021/05/22 23:57:34;;;;;;;7.00;3.42;;;410.30;1740.80;;;;;;5049389;28;20408;-79
